createdAt,value
2022-10-08T00:00:47.752Z,1010.83
2022-10-08T00:01:47.793Z,1010.85
2022-10-08T00:02:48.236Z,1010.82
2022-10-08T00:03:47.815Z,1010.81
2022-10-08T00:04:47.661Z,1010.79
2022-10-08T00:05:47.636Z,1010.82
2022-10-08T00:06:47.616Z,1010.82
2022-10-08T00:07:47.610Z,1010.84
2022-10-08T00:08:47.564Z,1010.85
2022-10-08T00:09:47.541Z,1010.82
2022-10-08T00:10:47.518Z,1010.85
2022-10-08T00:11:47.492Z,1010.87
2022-10-08T00:12:47.966Z,1010.85
2022-10-08T00:13:47.449Z,1010.83
2022-10-08T00:14:47.419Z,1010.86
2022-10-08T00:15:47.449Z,1010.87
2022-10-08T00:16:47.373Z,1010.82
2022-10-08T00:17:47.351Z,1010.83
2022-10-08T00:18:47.334Z,1010.82
2022-10-08T00:19:47.308Z,1010.80
2022-10-08T00:20:47.284Z,1010.79
2022-10-08T00:21:47.254Z,1010.79
2022-10-08T00:22:47.511Z,1010.78
2022-10-08T00:23:47.229Z,1010.80
2022-10-08T00:24:47.185Z,1010.83
2022-10-08T00:25:47.164Z,1010.84
2022-10-08T00:26:47.138Z,1010.86
2022-10-08T00:27:47.118Z,1010.82
2022-10-08T00:28:47.090Z,1010.81
2022-10-08T00:29:47.067Z,1010.75
2022-10-08T00:30:47.040Z,1010.74
2022-10-08T00:31:47.133Z,1010.74
2022-10-08T00:32:47.251Z,1010.76
2022-10-08T00:33:46.976Z,1010.74
2022-10-08T00:34:46.946Z,1010.75
2022-10-08T00:35:46.926Z,1010.76
2022-10-08T00:36:46.901Z,1010.73
2022-10-08T00:37:46.881Z,1010.73
2022-10-08T00:38:46.854Z,1010.72
2022-10-08T00:39:46.851Z,1010.71
2022-10-08T00:40:46.812Z,1010.71
2022-10-08T00:41:46.784Z,1010.70
2022-10-08T00:42:47.041Z,1010.76
2022-10-08T00:43:46.734Z,1010.73
2022-10-08T00:44:46.712Z,1010.69
2022-10-08T00:45:46.714Z,1010.73
2022-10-08T00:46:46.665Z,1010.70
2022-10-08T00:47:46.645Z,1010.68
2022-10-08T00:48:46.617Z,1010.67
2022-10-08T00:49:46.598Z,1010.68
2022-10-08T00:50:46.565Z,1010.67
2022-10-08T00:51:46.541Z,1010.68
2022-10-08T00:52:46.839Z,1010.65
2022-10-08T00:53:46.495Z,1010.62
2022-10-08T00:54:46.471Z,1010.59
2022-10-08T00:55:46.535Z,1010.60
2022-10-08T00:56:46.427Z,1010.58
2022-10-08T00:57:46.403Z,1010.58
2022-10-08T00:58:46.377Z,1010.60
2022-10-08T00:59:46.352Z,1010.55
2022-10-08T01:00:46.362Z,1010.54
2022-10-08T01:01:46.317Z,1010.53
2022-10-08T01:02:46.515Z,1010.51
2022-10-08T01:03:46.258Z,1010.49
2022-10-08T01:04:46.236Z,1010.47
2022-10-08T01:05:46.208Z,1010.43
2022-10-08T01:06:46.181Z,1010.43
2022-10-08T01:07:46.161Z,1010.40
2022-10-08T01:08:46.141Z,1010.40
2022-10-08T01:09:46.114Z,1010.37
2022-10-08T01:10:46.087Z,1010.37
2022-10-08T01:11:46.103Z,1010.39
2022-10-08T01:12:46.414Z,1010.38
2022-10-08T01:13:46.018Z,1010.38
2022-10-08T01:14:45.995Z,1010.38
2022-10-08T01:15:45.974Z,1010.37
2022-10-08T01:16:46.104Z,1010.40
2022-10-08T01:17:45.923Z,1010.38
2022-10-08T01:18:45.900Z,1010.36
2022-10-08T01:19:45.877Z,1010.37
2022-10-08T01:20:45.856Z,1010.41
2022-10-08T01:21:45.833Z,1010.38
2022-10-08T01:22:46.132Z,1010.37
2022-10-08T01:23:45.780Z,1010.37
2022-10-08T01:24:45.755Z,1010.34
2022-10-08T01:25:45.738Z,1010.35
2022-10-08T01:26:45.708Z,1010.35
2022-10-08T01:27:45.702Z,1010.32
2022-10-08T01:28:45.781Z,1010.28
2022-10-08T01:29:45.638Z,1010.30
2022-10-08T01:30:45.613Z,1010.27
2022-10-08T01:31:45.694Z,1010.24
2022-10-08T01:32:45.890Z,1010.27
2022-10-08T01:33:45.541Z,1010.29
2022-10-08T01:34:45.518Z,1010.31
2022-10-08T01:35:45.497Z,1010.26
2022-10-08T01:36:45.466Z,1010.24
2022-10-08T01:37:45.451Z,1010.24
2022-10-08T01:38:45.420Z,1010.24
2022-10-08T01:39:45.397Z,1010.20
2022-10-08T01:40:45.377Z,1010.20
2022-10-08T01:41:45.348Z,1010.20
2022-10-08T01:42:45.678Z,1010.25
2022-10-08T01:43:45.376Z,1010.26
2022-10-08T01:44:45.282Z,1010.27
2022-10-08T01:45:45.297Z,1010.28
2022-10-08T01:46:45.232Z,1010.28
2022-10-08T01:47:45.210Z,1010.31
2022-10-08T01:48:45.188Z,1010.32
2022-10-08T01:49:45.165Z,1010.31
2022-10-08T01:50:45.132Z,1010.36
2022-10-08T01:51:45.113Z,1010.37
2022-10-08T01:52:45.480Z,1010.40
2022-10-08T01:53:45.063Z,1010.37
2022-10-08T01:54:45.036Z,1010.37
2022-10-08T01:55:45.015Z,1010.35
2022-10-08T01:56:44.988Z,1010.36
2022-10-08T01:57:44.972Z,1010.36
2022-10-08T01:58:44.944Z,1010.30
2022-10-08T01:59:44.949Z,1010.28
2022-10-08T02:00:44.952Z,1010.28
2022-10-08T02:01:44.909Z,1010.29
2022-10-08T02:02:45.148Z,1010.28
2022-10-08T02:03:44.830Z,1010.26
2022-10-08T02:04:44.803Z,1010.25
2022-10-08T02:05:44.779Z,1010.29
2022-10-08T02:06:44.754Z,1010.27
2022-10-08T02:07:44.732Z,1010.27
2022-10-08T02:08:44.705Z,1010.29
2022-10-08T02:09:44.683Z,1010.30
2022-10-08T02:10:44.654Z,1010.31
2022-10-08T02:11:44.636Z,1010.32
2022-10-08T02:12:44.991Z,1010.29
2022-10-08T02:13:44.590Z,1010.31
2022-10-08T02:14:44.560Z,1010.30
2022-10-08T02:15:44.563Z,1010.35
2022-10-08T02:16:44.607Z,1010.39
2022-10-08T02:17:44.488Z,1010.42
2022-10-08T02:18:44.467Z,1010.42
2022-10-08T02:19:44.440Z,1010.48
2022-10-08T02:20:44.415Z,1010.52
2022-10-08T02:21:44.396Z,1010.54
2022-10-08T02:22:44.593Z,1010.52
2022-10-08T02:23:44.346Z,1010.49
2022-10-08T02:24:44.332Z,1010.53
2022-10-08T02:25:44.305Z,1010.50
2022-10-08T02:26:44.280Z,1010.56
2022-10-08T02:27:44.253Z,1010.56
2022-10-08T02:28:44.255Z,1010.53
2022-10-08T02:29:44.202Z,1010.56
2022-10-08T02:30:44.175Z,1010.56
2022-10-08T02:31:44.243Z,1010.57
2022-10-08T02:32:44.346Z,1010.57
2022-10-08T02:33:44.106Z,1010.58
2022-10-08T02:34:44.082Z,1010.58
2022-10-08T02:35:44.061Z,1010.56
2022-10-08T02:36:44.034Z,1010.58
2022-10-08T02:37:44.019Z,1010.51
2022-10-08T02:38:43.985Z,1010.54
2022-10-08T02:39:43.970Z,1010.56
2022-10-08T02:40:43.939Z,1010.53
2022-10-08T02:41:43.913Z,1010.54
2022-10-08T02:42:44.046Z,1010.50
2022-10-08T02:43:43.869Z,1010.53
2022-10-08T02:44:43.850Z,1010.52
2022-10-08T02:45:43.837Z,1010.52
2022-10-08T02:46:43.798Z,1010.52
2022-10-08T02:47:43.796Z,1010.50
2022-10-08T02:48:43.749Z,1010.46
2022-10-08T02:49:43.733Z,1010.48
2022-10-08T02:50:43.703Z,1010.48
2022-10-08T02:51:43.681Z,1010.49
2022-10-08T02:52:43.989Z,1010.43
2022-10-08T02:53:43.631Z,1010.47
2022-10-08T02:54:43.608Z,1010.44
2022-10-08T02:55:43.583Z,1010.46
2022-10-08T02:56:43.560Z,1010.46
2022-10-08T02:57:43.536Z,1010.47
2022-10-08T02:58:43.518Z,1010.51
2022-10-08T02:59:43.486Z,1010.50
2022-10-08T03:00:43.464Z,1010.44
2022-10-08T03:01:43.505Z,1010.51
2022-10-08T03:02:43.562Z,1010.47
2022-10-08T03:03:43.415Z,1010.47
2022-10-08T03:04:43.367Z,1010.46
2022-10-08T03:05:43.345Z,1010.45
2022-10-08T03:06:43.322Z,1010.43
2022-10-08T03:07:43.298Z,1010.47
2022-10-08T03:08:43.274Z,1010.45
2022-10-08T03:09:43.255Z,1010.43
2022-10-08T03:10:43.225Z,1010.46
2022-10-08T03:11:43.202Z,1010.41
2022-10-08T03:12:43.180Z,1010.45
2022-10-08T03:13:43.158Z,1010.43
2022-10-08T03:14:43.129Z,1010.46
2022-10-08T03:15:43.113Z,1010.46
2022-10-08T03:16:43.107Z,1010.43
2022-10-08T03:17:43.061Z,1010.43
2022-10-08T03:18:43.035Z,1010.48
2022-10-08T03:19:43.036Z,1010.47
2022-10-08T03:20:42.992Z,1010.53
2022-10-08T03:21:42.966Z,1010.50
2022-10-08T03:22:42.944Z,1010.54
2022-10-08T03:23:42.922Z,1010.50
2022-10-08T03:24:42.896Z,1010.54
2022-10-08T03:25:42.872Z,1010.54
2022-10-08T03:26:42.848Z,1010.55
2022-10-08T03:27:42.823Z,1010.55
2022-10-08T03:28:42.851Z,1010.55
2022-10-08T03:29:42.775Z,1010.56
2022-10-08T03:30:42.836Z,1010.58
2022-10-08T03:31:42.725Z,1010.58
2022-10-08T03:32:42.702Z,1010.59
2022-10-08T03:33:42.680Z,1010.57
2022-10-08T03:34:42.653Z,1010.60
2022-10-08T03:35:42.653Z,1010.61
2022-10-08T03:36:42.605Z,1010.60
2022-10-08T03:37:42.585Z,1010.63
2022-10-08T03:38:42.563Z,1010.61
2022-10-08T03:39:42.540Z,1010.62
2022-10-08T03:40:42.515Z,1010.61
2022-10-08T03:41:42.491Z,1010.59
2022-10-08T03:42:42.479Z,1010.60
2022-10-08T03:43:42.446Z,1010.57
2022-10-08T03:44:42.428Z,1010.63
2022-10-08T03:45:42.423Z,1010.66
2022-10-08T03:46:42.380Z,1010.66
2022-10-08T03:47:42.352Z,1010.65
2022-10-08T03:48:42.331Z,1010.69
2022-10-08T03:49:42.300Z,1010.70
2022-10-08T03:50:42.277Z,1010.73
2022-10-08T03:51:42.280Z,1010.73
2022-10-08T03:52:42.229Z,1010.74
2022-10-08T03:53:42.212Z,1010.75
2022-10-08T03:54:42.190Z,1010.80
2022-10-08T03:55:42.163Z,1010.79
2022-10-08T03:56:42.133Z,1010.79
2022-10-08T03:57:42.111Z,1010.82
2022-10-08T03:58:42.089Z,1010.84
2022-10-08T03:59:42.064Z,1010.83
2022-10-08T04:00:42.040Z,1010.84
2022-10-08T04:01:42.062Z,1010.85
2022-10-08T04:02:42.031Z,1010.87
2022-10-08T04:03:41.972Z,1010.89
2022-10-08T04:04:41.947Z,1010.89
2022-10-08T04:05:41.925Z,1010.92
2022-10-08T04:06:41.901Z,1010.94
2022-10-08T04:07:41.897Z,1010.99
2022-10-08T04:08:41.850Z,1010.97
2022-10-08T04:09:41.825Z,1010.94
2022-10-08T04:10:41.804Z,1010.94
2022-10-08T04:11:41.786Z,1010.99
2022-10-08T04:12:41.757Z,1010.94
2022-10-08T04:13:41.732Z,1010.92
2022-10-08T04:14:41.707Z,1010.90
2022-10-08T04:15:41.747Z,1010.88
2022-10-08T04:16:41.662Z,1010.88
2022-10-08T04:17:41.641Z,1010.88
2022-10-08T04:18:41.620Z,1010.85
2022-10-08T04:19:41.589Z,1010.86
2022-10-08T04:20:41.567Z,1010.86
2022-10-08T04:21:41.544Z,1010.81
2022-10-08T04:22:41.548Z,1010.83
2022-10-08T04:23:41.528Z,1010.84
2022-10-08T04:24:41.479Z,1010.87
2022-10-08T04:25:41.447Z,1010.81
2022-10-08T04:26:41.428Z,1010.81
2022-10-08T04:27:41.404Z,1010.79
2022-10-08T04:28:41.486Z,1010.82
2022-10-08T04:29:41.358Z,1010.81
2022-10-08T04:30:41.445Z,1010.76
2022-10-08T04:31:41.310Z,1010.76
2022-10-08T04:32:41.283Z,1010.75
2022-10-08T04:33:41.262Z,1010.68
2022-10-08T04:34:41.233Z,1010.66
2022-10-08T04:35:41.214Z,1010.60
2022-10-08T04:36:41.192Z,1010.73
2022-10-08T04:37:41.170Z,1010.77
2022-10-08T04:38:41.141Z,1010.83
2022-10-08T04:39:41.145Z,1010.87
2022-10-08T04:40:41.093Z,1010.87
2022-10-08T04:41:41.074Z,1010.90
2022-10-08T04:42:41.052Z,1010.91
2022-10-08T04:43:41.027Z,1010.90
2022-10-08T04:44:40.997Z,1010.91
2022-10-08T04:45:40.985Z,1010.84
2022-10-08T04:46:41.015Z,1010.81
2022-10-08T04:47:40.927Z,1010.86
2022-10-08T04:48:40.913Z,1010.90
2022-10-08T04:49:40.887Z,1010.88
2022-10-08T04:50:40.862Z,1010.90
2022-10-08T04:51:40.833Z,1010.93
2022-10-08T04:52:40.822Z,1010.90
2022-10-08T04:53:40.792Z,1010.93
2022-10-08T04:54:40.762Z,1010.89
2022-10-08T04:55:40.762Z,1010.92
2022-10-08T04:56:40.720Z,1010.90
2022-10-08T04:57:40.696Z,1010.90
2022-10-08T04:58:40.665Z,1010.95
2022-10-08T04:59:59.472Z,1010.95
2022-10-08T05:00:40.619Z,1010.94
2022-10-08T05:01:40.632Z,1010.94
2022-10-08T05:02:40.602Z,1010.94
2022-10-08T05:03:40.551Z,1010.93
2022-10-08T05:04:40.524Z,1010.95
2022-10-08T05:05:40.503Z,1010.96
2022-10-08T05:06:40.483Z,1010.92
2022-10-08T05:07:40.455Z,1010.92
2022-10-08T05:08:40.429Z,1010.93
2022-10-08T05:09:40.409Z,1010.93
2022-10-08T05:10:40.382Z,1010.91
2022-10-08T05:11:40.384Z,1010.95
2022-10-08T05:12:40.334Z,1010.96
2022-10-08T05:13:40.311Z,1011.00
2022-10-08T05:14:40.289Z,1011.00
2022-10-08T05:15:40.337Z,1011.06
2022-10-08T05:16:40.245Z,1011.14
2022-10-08T05:17:40.215Z,1011.17
2022-10-08T05:18:40.191Z,1011.19
2022-10-08T05:19:40.168Z,1011.20
2022-10-08T05:20:40.148Z,1011.21
2022-10-08T05:21:40.125Z,1011.21
2022-10-08T05:22:40.097Z,1011.24
2022-10-08T05:23:40.079Z,1011.24
2022-10-08T05:24:40.050Z,1011.27
2022-10-08T05:25:40.036Z,1011.27
2022-10-08T05:26:58.109Z,1011.28
2022-10-08T05:27:40.001Z,1011.21
2022-10-08T05:28:40.059Z,1011.19
2022-10-08T05:29:39.929Z,1011.23
2022-10-08T05:30:39.910Z,1011.21
2022-10-08T05:31:39.882Z,1011.24
2022-10-08T05:32:39.864Z,1011.20
2022-10-08T05:33:39.839Z,1011.22
2022-10-08T05:34:39.817Z,1011.29
2022-10-08T05:35:39.785Z,1011.28
2022-10-08T05:36:39.760Z,1011.28
2022-10-08T05:37:39.745Z,1011.27
2022-10-08T05:38:39.715Z,1011.33
2022-10-08T05:39:39.691Z,1011.31
2022-10-08T05:40:39.668Z,1011.35
2022-10-08T05:41:39.652Z,1011.36
2022-10-08T05:42:39.622Z,1011.40
2022-10-08T05:43:39.649Z,1011.47
2022-10-08T05:44:41.453Z,1011.43
2022-10-08T05:45:39.552Z,1011.47
2022-10-08T05:46:39.662Z,1011.49
2022-10-08T05:47:39.504Z,1011.55
2022-10-08T05:48:39.484Z,1011.59
2022-10-08T05:49:39.454Z,1011.54
2022-10-08T05:50:39.428Z,1011.60
2022-10-08T05:51:39.407Z,1011.59
2022-10-08T05:52:39.390Z,1011.63
2022-10-08T05:53:39.360Z,1011.59
2022-10-08T05:54:39.333Z,1011.61
2022-10-08T05:55:39.314Z,1011.66
2022-10-08T05:56:39.288Z,1011.65
2022-10-08T05:57:39.268Z,1011.61
2022-10-08T05:58:39.240Z,1011.66
2022-10-08T05:59:39.237Z,1011.63
2022-10-08T06:00:39.196Z,1011.64
2022-10-08T06:01:39.173Z,1011.63
2022-10-08T06:02:39.227Z,1011.67
2022-10-08T06:03:39.125Z,1011.64
2022-10-08T06:04:39.145Z,1011.71
2022-10-08T06:05:39.075Z,1011.77
2022-10-08T06:06:39.058Z,1011.80
2022-10-08T06:07:39.028Z,1011.77
2022-10-08T06:08:39.005Z,1011.83
2022-10-08T06:09:38.983Z,1011.84
2022-10-08T06:10:38.954Z,1011.83
2022-10-08T06:11:38.940Z,1011.89
2022-10-08T06:12:38.916Z,1011.85
2022-10-08T06:13:38.887Z,1011.90
2022-10-08T06:14:38.865Z,1011.90
2022-10-08T06:15:38.857Z,1011.90
2022-10-08T06:16:38.901Z,1011.93
2022-10-08T06:17:38.794Z,1011.93
2022-10-08T06:18:38.771Z,1011.91
2022-10-08T06:19:38.746Z,1011.94
2022-10-08T06:20:38.721Z,1011.97
2022-10-08T06:21:38.701Z,1012.00
2022-10-08T06:22:38.678Z,1012.01
2022-10-08T06:23:38.653Z,1012.02
2022-10-08T06:24:38.630Z,1012.01
2022-10-08T06:25:38.605Z,1012.05
2022-10-08T06:26:38.581Z,1012.07
2022-10-08T06:27:38.553Z,1012.07
2022-10-08T06:28:38.559Z,1012.06
2022-10-08T06:29:38.515Z,1012.11
2022-10-08T06:30:38.483Z,1012.14
2022-10-08T06:31:38.546Z,1012.18
2022-10-08T06:32:38.437Z,1012.17
2022-10-08T06:33:38.411Z,1012.20
2022-10-08T06:34:38.391Z,1012.18
2022-10-08T06:35:38.369Z,1012.20
2022-10-08T06:36:38.343Z,1012.27
2022-10-08T06:37:38.317Z,1012.27
2022-10-08T06:38:38.296Z,1012.23
2022-10-08T06:39:38.272Z,1012.25
2022-10-08T06:40:38.248Z,1012.21
2022-10-08T06:41:38.226Z,1012.22
2022-10-08T06:42:38.201Z,1012.26
2022-10-08T06:43:38.179Z,1012.30
2022-10-08T06:44:38.153Z,1012.33
2022-10-08T06:45:38.131Z,1012.35
2022-10-08T06:46:38.196Z,1012.34
2022-10-08T06:47:38.100Z,1012.37
2022-10-08T06:48:38.061Z,1012.34
2022-10-08T06:49:38.046Z,1012.36
2022-10-08T06:50:38.012Z,1012.41
2022-10-08T06:51:37.986Z,1012.41
2022-10-08T06:52:37.966Z,1012.42
2022-10-08T06:53:37.939Z,1012.44
2022-10-08T06:54:37.916Z,1012.46
2022-10-08T06:55:37.891Z,1012.48
2022-10-08T06:56:37.882Z,1012.48
2022-10-08T06:57:37.845Z,1012.50
2022-10-08T06:58:37.831Z,1012.50
2022-10-08T06:59:37.798Z,1012.50
2022-10-08T07:00:37.834Z,1012.53
2022-10-08T07:01:37.878Z,1012.51
2022-10-08T07:02:37.811Z,1012.57
2022-10-08T07:03:37.724Z,1012.53
2022-10-08T07:04:37.682Z,1012.54
2022-10-08T07:05:37.657Z,1012.56
2022-10-08T07:06:37.638Z,1012.58
2022-10-08T07:07:37.617Z,1012.58
2022-10-08T07:08:37.587Z,1012.56
2022-10-08T07:09:37.568Z,1012.55
2022-10-08T07:10:37.542Z,1012.60
2022-10-08T07:11:37.520Z,1012.61
2022-10-08T07:12:37.493Z,1012.60
2022-10-08T07:13:37.470Z,1012.62
2022-10-08T07:14:37.451Z,1012.64
2022-10-08T07:15:37.424Z,1012.67
2022-10-08T07:16:37.468Z,1012.72
2022-10-08T07:17:37.373Z,1012.66
2022-10-08T07:18:37.351Z,1012.70
2022-10-08T07:19:37.348Z,1012.69
2022-10-08T07:20:37.305Z,1012.74
2022-10-08T07:21:37.288Z,1012.75
2022-10-08T07:22:37.264Z,1012.78
2022-10-08T07:23:37.235Z,1012.86
2022-10-08T07:24:37.211Z,1012.91
2022-10-08T07:25:37.192Z,1012.90
2022-10-08T07:26:37.165Z,1012.92
2022-10-08T07:27:39.506Z,1012.90
2022-10-08T07:28:37.225Z,1012.98
2022-10-08T07:29:37.099Z,1012.99
2022-10-08T07:30:37.073Z,1013.01
2022-10-08T07:31:37.212Z,1013.01
2022-10-08T07:32:37.029Z,1013.08
2022-10-08T07:33:36.998Z,1013.10
2022-10-08T07:34:36.976Z,1013.18
2022-10-08T07:35:36.968Z,1013.17
2022-10-08T07:36:36.928Z,1013.17
2022-10-08T07:37:36.909Z,1013.18
2022-10-08T07:38:36.879Z,1013.17
2022-10-08T07:39:36.858Z,1013.18
2022-10-08T07:40:36.833Z,1013.24
2022-10-08T07:41:36.815Z,1013.20
2022-10-08T07:42:36.790Z,1013.29
2022-10-08T07:43:36.765Z,1013.28
2022-10-08T07:44:36.742Z,1013.28
2022-10-08T07:45:36.750Z,1013.30
2022-10-08T07:46:36.724Z,1013.30
2022-10-08T07:47:36.671Z,1013.32
2022-10-08T07:48:36.646Z,1013.32
2022-10-08T07:49:36.623Z,1013.34
2022-10-08T07:50:36.603Z,1013.29
2022-10-08T07:51:36.613Z,1013.25
2022-10-08T07:52:36.553Z,1013.28
2022-10-08T07:53:36.530Z,1013.28
2022-10-08T07:54:36.510Z,1013.34
2022-10-08T07:55:36.483Z,1013.32
2022-10-08T07:56:36.464Z,1013.34
2022-10-08T07:57:36.439Z,1013.34
2022-10-08T07:58:36.409Z,1013.31
2022-10-08T07:59:36.395Z,1013.28
2022-10-08T08:00:36.418Z,1013.31
2022-10-08T08:01:36.350Z,1013.34
2022-10-08T08:02:36.365Z,1013.34
2022-10-08T08:03:36.298Z,1013.26
2022-10-08T08:04:36.273Z,1013.26
2022-10-08T08:05:36.249Z,1013.30
2022-10-08T08:06:36.228Z,1013.30
2022-10-08T08:07:36.221Z,1013.32
2022-10-08T08:08:36.186Z,1013.34
2022-10-08T08:09:36.161Z,1013.32
2022-10-08T08:10:36.145Z,1013.38
2022-10-08T08:11:36.109Z,1013.44
2022-10-08T08:12:36.090Z,1013.44
2022-10-08T08:13:37.452Z,1013.39
2022-10-08T08:14:36.040Z,1013.44
2022-10-08T08:15:36.022Z,1013.43
2022-10-08T08:16:36.109Z,1013.43
2022-10-08T08:17:35.972Z,1013.47
2022-10-08T08:18:35.945Z,1013.52
2022-10-08T08:19:35.922Z,1013.50
2022-10-08T08:20:35.900Z,1013.55
2022-10-08T08:21:35.879Z,1013.54
2022-10-08T08:22:35.851Z,1013.60
2022-10-08T08:23:35.850Z,1013.66
2022-10-08T08:24:35.807Z,1013.70
2022-10-08T08:25:35.787Z,1013.67
2022-10-08T08:26:35.767Z,1013.69
2022-10-08T08:27:35.737Z,1013.72
2022-10-08T08:28:35.761Z,1013.69
2022-10-08T08:29:35.689Z,1013.74
2022-10-08T08:30:35.667Z,1013.79
2022-10-08T08:31:35.788Z,1013.74
2022-10-08T08:32:35.623Z,1013.74
2022-10-08T08:33:35.600Z,1013.82
2022-10-08T08:34:35.573Z,1013.78
2022-10-08T08:35:35.552Z,1013.83
2022-10-08T08:36:35.523Z,1013.82
2022-10-08T08:37:35.506Z,1013.84
2022-10-08T08:38:35.482Z,1013.79
2022-10-08T08:39:35.477Z,1013.84
2022-10-08T08:40:35.433Z,1013.84
2022-10-08T08:41:35.411Z,1013.87
2022-10-08T08:42:35.389Z,1013.90
2022-10-08T08:43:35.363Z,1013.91
2022-10-08T08:44:35.341Z,1013.97
2022-10-08T08:45:46.304Z,1013.98
2022-10-08T08:46:35.346Z,1013.98
2022-10-08T08:47:35.273Z,1014.03
2022-10-08T08:48:35.248Z,1014.04
2022-10-08T08:49:35.293Z,1014.02
2022-10-08T08:50:35.203Z,1014.02
2022-10-08T08:51:35.182Z,1013.98
2022-10-08T08:52:35.159Z,1014.02
2022-10-08T08:53:35.132Z,1014.07
2022-10-08T08:54:35.113Z,1014.06
2022-10-08T08:55:35.112Z,1014.08
2022-10-08T08:56:35.066Z,1014.08
2022-10-08T08:57:35.044Z,1014.06
2022-10-08T08:58:35.019Z,1014.04
2022-10-08T08:59:34.994Z,1014.11
2022-10-08T09:00:34.973Z,1014.07
2022-10-08T09:01:35.049Z,1014.06
2022-10-08T09:02:34.922Z,1014.13
2022-10-08T09:03:34.907Z,1014.14
2022-10-08T09:04:34.876Z,1014.14
2022-10-08T09:05:34.949Z,1014.20
2022-10-08T09:06:34.834Z,1014.14
2022-10-08T09:07:34.813Z,1014.15
2022-10-08T09:08:34.786Z,1014.12
2022-10-08T09:09:34.772Z,1014.16
2022-10-08T09:10:34.750Z,1014.21
2022-10-08T09:11:34.741Z,1014.20
2022-10-08T09:12:34.694Z,1014.20
2022-10-08T09:13:34.675Z,1014.18
2022-10-08T09:14:34.648Z,1014.23
2022-10-08T09:15:34.631Z,1014.22
2022-10-08T09:16:34.667Z,1014.20
2022-10-08T09:17:34.581Z,1014.23
2022-10-08T09:18:34.561Z,1014.31
2022-10-08T09:19:34.535Z,1014.20
2022-10-08T09:20:39.268Z,1014.21
2022-10-08T09:21:34.485Z,1014.30
2022-10-08T09:22:34.464Z,1014.23
2022-10-08T09:23:34.443Z,1014.22
2022-10-08T09:24:34.420Z,1014.31
2022-10-08T09:25:34.395Z,1014.35
2022-10-08T09:26:34.373Z,1014.42
2022-10-08T09:27:34.372Z,1014.39
2022-10-08T09:28:34.374Z,1014.41
2022-10-08T09:29:34.307Z,1014.44
2022-10-08T09:30:34.417Z,1014.43
2022-10-08T09:31:34.326Z,1014.47
2022-10-08T09:32:34.235Z,1014.43
2022-10-08T09:33:34.213Z,1014.47
2022-10-08T09:34:34.187Z,1014.46
2022-10-08T09:35:34.168Z,1014.48
2022-10-08T09:36:34.145Z,1014.47
2022-10-08T09:37:34.132Z,1014.51
2022-10-08T09:38:34.098Z,1014.49
2022-10-08T09:39:34.077Z,1014.52
2022-10-08T09:40:34.058Z,1014.51
2022-10-08T09:41:34.028Z,1014.55
2022-10-08T09:42:34.003Z,1014.55
2022-10-08T09:43:34.006Z,1014.55
2022-10-08T09:44:33.959Z,1014.62
2022-10-08T09:45:33.938Z,1014.58
2022-10-08T09:46:33.917Z,1014.63
2022-10-08T09:47:33.899Z,1014.65
2022-10-08T09:48:33.898Z,1014.66
2022-10-08T09:49:33.872Z,1014.68
2022-10-08T09:50:33.837Z,1014.63
2022-10-08T09:51:33.805Z,1014.59
2022-10-08T09:52:33.778Z,1014.64
2022-10-08T09:53:33.757Z,1014.65
2022-10-08T09:54:33.733Z,1014.73
2022-10-08T09:55:33.711Z,1014.72
2022-10-08T09:56:33.689Z,1014.72
2022-10-08T09:57:33.667Z,1014.80
2022-10-08T09:58:33.644Z,1014.79
2022-10-08T09:59:33.645Z,1014.74
2022-10-08T10:00:33.599Z,1014.74
2022-10-08T10:01:33.618Z,1014.81
2022-10-08T10:02:33.552Z,1014.82
2022-10-08T10:03:33.607Z,1014.80
2022-10-08T10:04:33.507Z,1014.80
2022-10-08T10:05:33.485Z,1014.77
2022-10-08T10:06:33.472Z,1014.81
2022-10-08T10:07:33.437Z,1014.79
2022-10-08T10:08:33.418Z,1014.76
2022-10-08T10:09:33.397Z,1014.75
2022-10-08T10:10:33.377Z,1014.77
2022-10-08T10:11:33.347Z,1014.86
2022-10-08T10:12:33.325Z,1014.87
2022-10-08T10:13:33.300Z,1014.79
2022-10-08T10:14:33.279Z,1014.77
2022-10-08T10:15:33.280Z,1014.74
2022-10-08T10:16:33.286Z,1014.79
2022-10-08T10:17:33.210Z,1014.72
2022-10-08T10:18:33.187Z,1014.75
2022-10-08T10:19:33.168Z,1014.73
2022-10-08T10:20:33.144Z,1014.71
2022-10-08T10:21:33.140Z,1014.71
2022-10-08T10:22:33.099Z,1014.77
2022-10-08T10:23:33.075Z,1014.84
2022-10-08T10:24:33.051Z,1014.80
2022-10-08T10:25:33.031Z,1014.84
2022-10-08T10:26:33.009Z,1014.85
2022-10-08T10:27:32.986Z,1014.90
2022-10-08T10:28:33.032Z,1014.81
2022-10-08T10:29:32.944Z,1014.80
2022-10-08T10:30:32.984Z,1014.85
2022-10-08T10:31:32.919Z,1014.78
2022-10-08T10:32:32.875Z,1014.86
2022-10-08T10:33:32.856Z,1014.81
2022-10-08T10:34:32.826Z,1014.82
2022-10-08T10:35:32.811Z,1014.86
2022-10-08T10:36:32.785Z,1014.79
2022-10-08T10:37:32.764Z,1014.81
2022-10-08T10:38:32.739Z,1014.78
2022-10-08T10:39:32.719Z,1014.78
2022-10-08T10:40:32.692Z,1014.81
2022-10-08T10:41:32.671Z,1014.83
2022-10-08T10:42:32.649Z,1014.83
2022-10-08T10:43:32.628Z,1014.80
2022-10-08T10:44:32.610Z,1014.76
2022-10-08T10:45:32.581Z,1014.79
2022-10-08T10:46:32.636Z,1014.79
2022-10-08T10:47:32.587Z,1014.89
2022-10-08T10:48:32.517Z,1014.85
2022-10-08T10:49:32.489Z,1014.88
2022-10-08T10:50:32.461Z,1014.89
2022-10-08T10:51:32.445Z,1014.85
2022-10-08T10:52:32.417Z,1014.87
2022-10-08T10:53:32.406Z,1014.85
2022-10-08T10:54:32.376Z,1014.84
2022-10-08T10:55:32.350Z,1014.93
2022-10-08T10:56:32.330Z,1014.92
2022-10-08T10:57:32.312Z,1014.90
2022-10-08T10:58:32.287Z,1014.99
2022-10-08T10:59:32.266Z,1014.99
2022-10-08T11:00:32.242Z,1015.02
2022-10-08T11:01:32.299Z,1014.92
2022-10-08T11:02:32.276Z,1014.96
2022-10-08T11:03:32.278Z,1014.92
2022-10-08T11:04:32.146Z,1014.90
2022-10-08T11:05:32.126Z,1014.95
2022-10-08T11:06:32.105Z,1014.98
2022-10-08T11:07:32.086Z,1015.02
2022-10-08T11:08:32.059Z,1015.14
2022-10-08T11:09:32.040Z,1015.22
2022-10-08T11:10:32.018Z,1015.15
2022-10-08T11:11:33.280Z,1015.16
2022-10-08T11:12:31.973Z,1015.25
2022-10-08T11:13:31.947Z,1015.27
2022-10-08T11:14:31.926Z,1015.30
2022-10-08T11:15:31.980Z,1015.30
2022-10-08T11:16:31.882Z,1015.20
2022-10-08T11:17:31.860Z,1015.28
2022-10-08T11:18:31.837Z,1015.27
2022-10-08T11:19:31.837Z,1015.32
2022-10-08T11:20:31.806Z,1015.31
2022-10-08T11:21:31.770Z,1015.32
2022-10-08T11:22:31.751Z,1015.27
2022-10-08T11:23:31.723Z,1015.24
2022-10-08T11:24:31.704Z,1015.20
2022-10-08T11:25:31.857Z,1015.16
2022-10-08T11:26:31.654Z,1015.14
2022-10-08T11:27:31.631Z,1015.10
2022-10-08T11:28:31.646Z,1015.10
2022-10-08T11:29:31.586Z,1015.12
2022-10-08T11:30:31.570Z,1015.14
2022-10-08T11:31:31.547Z,1015.15
2022-10-08T11:32:31.526Z,1015.14
2022-10-08T11:33:31.494Z,1015.18
2022-10-08T11:34:31.471Z,1015.19
2022-10-08T11:35:31.476Z,1015.22
2022-10-08T11:36:33.089Z,1015.21
2022-10-08T11:37:31.411Z,1015.19
2022-10-08T11:38:31.383Z,1015.14
2022-10-08T11:39:31.363Z,1015.15
2022-10-08T11:40:31.336Z,1015.12
2022-10-08T11:41:31.312Z,1015.14
2022-10-08T11:42:31.290Z,1015.14
2022-10-08T11:43:31.265Z,1015.12
2022-10-08T11:44:31.249Z,1015.14
2022-10-08T11:45:31.222Z,1015.14
2022-10-08T11:46:31.425Z,1015.10
2022-10-08T11:47:31.178Z,1015.13
2022-10-08T11:48:31.152Z,1015.13
2022-10-08T11:49:31.134Z,1015.16
2022-10-08T11:50:31.123Z,1015.10
2022-10-08T11:51:31.105Z,1015.16
2022-10-08T11:52:31.061Z,1015.18
2022-10-08T11:53:31.036Z,1015.15
2022-10-08T11:54:31.019Z,1015.13
2022-10-08T11:55:31.003Z,1015.09
2022-10-08T11:56:30.975Z,1015.10
2022-10-08T11:57:43.719Z,1015.14
2022-10-08T11:58:30.926Z,1015.09
2022-10-08T11:59:30.904Z,1015.11
2022-10-08T12:00:30.882Z,1015.08
2022-10-08T12:01:30.863Z,1015.06
2022-10-08T12:02:30.972Z,1015.05
2022-10-08T12:03:30.963Z,1015.05
2022-10-08T12:04:30.796Z,1015.07
2022-10-08T12:05:30.767Z,1015.05